Search for airport 
image banner adimage banner adimage banner ad
image banner ad

CA04 - Flying N Ranch

Located in Cottonwood, United States

ICAO - CA04, IATA -

Data provided by Airmate  

General information

Coordinates: N40°20'47" W122°20'20"
Elevation is 530 feet MSL.
Magnetic variation is 17° East
View others Airports in California

Operational data

Special qualification required
Current time UTC:
Current local time:
Weather at : KRDD - Redding Muni ( 18 km )
METAR: KRDD 240853Z AUTO 00000KT 10SM CLR 22/11 A2991 RMK AO2 SLP121 T02220106 51010
TAF: KRDD 240520Z 2406/2506 VRB05KT P6SM SKC FM242200 18008KT P6SM SCT150 FM250300 14006KT P6SM SCT150
View NOTAMs / SUP AIP / TFR affecting this airport [VIEW]
Communications frequencies: [VIEW]

Runways:

RWY identifierQFULength (ft)Width (ft)SurfaceLDA (ft)
162600150GRASS
342600150GRASS

Airport contact information

Address: Cottonwood United States

Satellite view of CA04